sensor_id;sensor_type;location;lat;lon;timestamp;pressure;altitude;pressure_sealevel;temperature
19644;BMP180;9970;-36.854;174.870;2023-03-19T00:01:06;101930.00;;;21.10
19644;BMP180;9970;-36.854;174.870;2023-03-19T00:03:39;101932.00;;;21.10
19644;BMP180;9970;-36.854;174.870;2023-03-19T00:06:13;101937.00;;;21.10
19644;BMP180;9970;-36.854;174.870;2023-03-19T00:08:46;101937.00;;;21.10
19644;BMP180;9970;-36.854;174.870;2023-03-19T00:11:19;101936.00;;;21.10
19644;BMP180;9970;-36.854;174.870;2023-03-19T00:13:52;101938.00;;;21.00
19644;BMP180;9970;-36.854;174.870;2023-03-19T00:16:25;101929.00;;;21.00
19644;BMP180;9970;-36.854;174.870;2023-03-19T00:18:58;101929.00;;;21.00
19644;BMP180;9970;-36.854;174.870;2023-03-19T00:21:32;101933.00;;;21.00
19644;BMP180;9970;-36.854;174.870;2023-03-19T00:24:06;101941.00;;;21.00
19644;BMP180;9970;-36.854;174.870;2023-03-19T00:26:39;101931.00;;;21.00
19644;BMP180;9970;-36.854;174.870;2023-03-19T00:29:13;101921.00;;;21.00
19644;BMP180;9970;-36.854;174.870;2023-03-19T00:31:46;101919.00;;;21.00
19644;BMP180;9970;-36.854;174.870;2023-03-19T00:34:19;101928.00;;;21.00
19644;BMP180;9970;-36.854;174.870;2023-03-19T00:36:53;101925.00;;;21.00
19644;BMP180;9970;-36.854;174.870;2023-03-19T00:39:27;101926.00;;;20.90
19644;BMP180;9970;-36.854;174.870;2023-03-19T00:42:00;101926.00;;;20.90
19644;BMP180;9970;-36.854;174.870;2023-03-19T00:44:33;101931.00;;;20.90
19644;BMP180;9970;-36.854;174.870;2023-03-19T00:47:12;101918.00;;;20.90
19644;BMP180;9970;-36.854;174.870;2023-03-19T00:49:45;101924.00;;;20.90
19644;BMP180;9970;-36.854;174.870;2023-03-19T00:52:18;101923.00;;;20.90
19644;BMP180;9970;-36.854;174.870;2023-03-19T00:54:51;101927.00;;;20.90
19644;BMP180;9970;-36.854;174.870;2023-03-19T00:57:25;101927.00;;;20.90
19644;BMP180;9970;-36.854;174.870;2023-03-19T00:59:58;101920.00;;;20.90
19644;BMP180;9970;-36.854;174.870;2023-03-19T01:02:31;101918.00;;;20.90
19644;BMP180;9970;-36.854;174.870;2023-03-19T01:05:06;101917.00;;;21.00
19644;BMP180;9970;-36.854;174.870;2023-03-19T01:07:39;101909.00;;;21.10
19644;BMP180;9970;-36.854;174.870;2023-03-19T01:10:12;101913.00;;;21.10
19644;BMP180;9970;-36.854;174.870;2023-03-19T01:12:45;101910.00;;;21.10
19644;BMP180;9970;-36.854;174.870;2023-03-19T01:15:18;101906.00;;;21.10
19644;BMP180;9970;-36.854;174.870;2023-03-19T01:20:57;101904.00;;;21.20
19644;BMP180;9970;-36.854;174.870;2023-03-19T01:24:05;101898.00;;;21.20
19644;BMP180;9970;-36.854;174.870;2023-03-19T01:27:19;101903.00;;;21.30
19644;BMP180;9970;-36.854;174.870;2023-03-19T01:38:57;101887.00;;;21.40
19644;BMP180;9970;-36.854;174.870;2023-03-19T01:42:20;101846.00;;;21.40
19644;BMP180;9970;-36.854;174.870;2023-03-19T01:44:54;101879.00;;;21.40
19644;BMP180;9970;-36.854;174.870;2023-03-19T01:47:52;101883.00;;;21.50
19644;BMP180;9970;-36.854;174.870;2023-03-19T01:50:49;101885.00;;;21.50
19644;BMP180;9970;-36.854;174.870;2023-03-19T01:53:51;101881.00;;;21.50
19644;BMP180;9970;-36.854;174.870;2023-03-19T01:56:58;101880.00;;;21.50
19644;BMP180;9970;-36.854;174.870;2023-03-19T02:00:12;101878.00;;;21.40
19644;BMP180;9970;-36.854;174.870;2023-03-19T02:09:52;101873.00;;;21.50
19644;BMP180;9970;-36.854;174.870;2023-03-19T02:15:48;101870.00;;;21.50
19644;BMP180;9970;-36.854;174.870;2023-03-19T02:18:30;101876.00;;;21.50
19644;BMP180;9970;-36.854;174.870;2023-03-19T02:21:09;101871.00;;;21.50
19644;BMP180;9970;-36.854;174.870;2023-03-19T02:26:44;101869.00;;;21.60
19644;BMP180;9970;-36.854;174.870;2023-03-19T02:29:19;101853.00;;;21.60
19644;BMP180;9970;-36.854;174.870;2023-03-19T02:31:53;101855.00;;;21.60
19644;BMP180;9970;-36.854;174.870;2023-03-19T02:34:35;101869.00;;;21.70
19644;BMP180;9970;-36.854;174.870;2023-03-19T02:37:16;101857.00;;;21.70
19644;BMP180;9970;-36.854;174.870;2023-03-19T02:40:23;101853.00;;;21.70
19644;BMP180;9970;-36.854;174.870;2023-03-19T02:42:40;101856.00;;;21.70
19644;BMP180;9970;-36.854;174.870;2023-03-19T02:45:15;101852.00;;;21.70
19644;BMP180;9970;-36.854;174.870;2023-03-19T02:47:52;101856.00;;;21.70
19644;BMP180;9970;-36.854;174.870;2023-03-19T02:50:25;101844.00;;;21.70
19644;BMP180;9970;-36.854;174.870;2023-03-19T02:53:01;101842.00;;;21.70
19644;BMP180;9970;-36.854;174.870;2023-03-19T02:55:35;101839.00;;;21.70
19644;BMP180;9970;-36.854;174.870;2023-03-19T02:58:09;101832.00;;;21.70
19644;BMP180;9970;-36.854;174.870;2023-03-19T03:00:43;101842.00;;;21.70
19644;BMP180;9970;-36.854;174.870;2023-03-19T03:03:20;101832.00;;;21.60
19644;BMP180;9970;-36.854;174.870;2023-03-19T03:05:57;101833.00;;;21.60
19644;BMP180;9970;-36.854;174.870;2023-03-19T03:08:30;101834.00;;;21.60
19644;BMP180;9970;-36.854;174.870;2023-03-19T03:11:07;101829.00;;;21.60
19644;BMP180;9970;-36.854;174.870;2023-03-19T03:13:41;101830.00;;;21.60
19644;BMP180;9970;-36.854;174.870;2023-03-19T03:16:15;101828.00;;;21.60
19644;BMP180;9970;-36.854;174.870;2023-03-19T03:18:49;101834.00;;;21.60
19644;BMP180;9970;-36.854;174.870;2023-03-19T03:21:25;101820.00;;;21.60
19644;BMP180;9970;-36.854;174.870;2023-03-19T03:24:00;101825.00;;;21.60
19644;BMP180;9970;-36.854;174.870;2023-03-19T03:26:34;101826.00;;;21.50
19644;BMP180;9970;-36.854;174.870;2023-03-19T03:29:09;101824.00;;;21.50
19644;BMP180;9970;-36.854;174.870;2023-03-19T03:31:42;101826.00;;;21.50
19644;BMP180;9970;-36.854;174.870;2023-03-19T03:34:16;101834.00;;;21.50
19644;BMP180;9970;-36.854;174.870;2023-03-19T03:36:49;101834.00;;;21.40
19644;BMP180;9970;-36.854;174.870;2023-03-19T03:39:24;101824.00;;;21.40
19644;BMP180;9970;-36.854;174.870;2023-03-19T03:42:02;101820.00;;;21.40
19644;BMP180;9970;-36.854;174.870;2023-03-19T03:44:34;101833.00;;;21.40
19644;BMP180;9970;-36.854;174.870;2023-03-19T03:47:07;101827.00;;;21.40
19644;BMP180;9970;-36.854;174.870;2023-03-19T03:49:41;101822.00;;;21.30
19644;BMP180;9970;-36.854;174.870;2023-03-19T03:52:16;101821.00;;;21.30
19644;BMP180;9970;-36.854;174.870;2023-03-19T03:54:50;101810.00;;;21.30
19644;BMP180;9970;-36.854;174.870;2023-03-19T03:57:23;101820.00;;;21.20
19644;BMP180;9970;-36.854;174.870;2023-03-19T03:59:59;101821.00;;;21.20
19644;BMP180;9970;-36.854;174.870;2023-03-19T04:02:36;101816.00;;;21.10
19644;BMP180;9970;-36.854;174.870;2023-03-19T04:05:35;101811.00;;;21.10
19644;BMP180;9970;-36.854;174.870;2023-03-19T04:08:08;101815.00;;;21.10
19644;BMP180;9970;-36.854;174.870;2023-03-19T04:11:10;101815.00;;;21.10
19644;BMP180;9970;-36.854;174.870;2023-03-19T04:17:00;101811.00;;;21.00
19644;BMP180;9970;-36.854;174.870;2023-03-19T04:20:12;101806.00;;;21.00
19644;BMP180;9970;-36.854;174.870;2023-03-19T04:23:17;101805.00;;;20.90
19644;BMP180;9970;-36.854;174.870;2023-03-19T04:25:51;101811.00;;;20.90
19644;BMP180;9970;-36.854;174.870;2023-03-19T04:28:42;101815.00;;;20.80
19644;BMP180;9970;-36.854;174.870;2023-03-19T04:31:25;101812.00;;;20.80
19644;BMP180;9970;-36.854;174.870;2023-03-19T04:34:10;101809.00;;;20.80
19644;BMP180;9970;-36.854;174.870;2023-03-19T04:40:12;101811.00;;;20.70
19644;BMP180;9970;-36.854;174.870;2023-03-19T04:43:06;101822.00;;;20.70
19644;BMP180;9970;-36.854;174.870;2023-03-19T04:46:06;101817.00;;;20.60
19644;BMP180;9970;-36.854;174.870;2023-03-19T04:49:03;101815.00;;;20.60
19644;BMP180;9970;-36.854;174.870;2023-03-19T04:51:47;101820.00;;;20.50
19644;BMP180;9970;-36.854;174.870;2023-03-19T04:57:38;101818.00;;;20.50
19644;BMP180;9970;-36.854;174.870;2023-03-19T05:00:53;101815.00;;;20.50
19644;BMP180;9970;-36.854;174.870;2023-03-19T05:07:04;101811.00;;;20.40
19644;BMP180;9970;-36.854;174.870;2023-03-19T05:09:55;101823.00;;;20.40
19644;BMP180;9970;-36.854;174.870;2023-03-19T05:15:57;101819.00;;;20.40
19644;BMP180;9970;-36.854;174.870;2023-03-19T05:18:35;101820.00;;;20.30
19644;BMP180;9970;-36.854;174.870;2023-03-19T05:21:50;101812.00;;;20.30
19644;BMP180;9970;-36.854;174.870;2023-03-19T05:34:31;101821.00;;;20.20
19644;BMP180;9970;-36.854;174.870;2023-03-19T05:37:36;101818.00;;;20.20
19644;BMP180;9970;-36.854;174.870;2023-03-19T05:43:45;101824.00;;;20.10
19644;BMP180;9970;-36.854;174.870;2023-03-19T05:46:25;101816.00;;;20.10
19644;BMP180;9970;-36.854;174.870;2023-03-19T05:55:35;101832.00;;;20.10
19644;BMP180;9970;-36.854;174.870;2023-03-19T05:58:40;101841.00;;;20.10
19644;BMP180;9970;-36.854;174.870;2023-03-19T06:01:46;101833.00;;;20.00
19644;BMP180;9970;-36.854;174.870;2023-03-19T06:14:12;101829.00;;;19.90
19644;BMP180;9970;-36.854;174.870;2023-03-19T06:26:49;101832.00;;;19.80
19644;BMP180;9970;-36.854;174.870;2023-03-19T06:32:41;101830.00;;;19.80
19644;BMP180;9970;-36.854;174.870;2023-03-19T06:35:44;101823.00;;;19.80
19644;BMP180;9970;-36.854;174.870;2023-03-19T06:43:07;101834.00;;;19.80
19644;BMP180;9970;-36.854;174.870;2023-03-19T06:45:01;101838.00;;;19.70
19644;BMP180;9970;-36.854;174.870;2023-03-19T06:51:21;101838.00;;;19.70
19644;BMP180;9970;-36.854;174.870;2023-03-19T06:58:06;101842.00;;;19.70
19644;BMP180;9970;-36.854;174.870;2023-03-19T07:03:55;101846.00;;;19.60
19644;BMP180;9970;-36.854;174.870;2023-03-19T07:06:51;101865.00;;;19.60
19644;BMP180;9970;-36.854;174.870;2023-03-19T07:19:47;101870.00;;;19.60
19644;BMP180;9970;-36.854;174.870;2023-03-19T07:22:36;101871.00;;;19.60
19644;BMP180;9970;-36.854;174.870;2023-03-19T07:31:37;101877.00;;;19.50
19644;BMP180;9970;-36.854;174.870;2023-03-19T07:40:19;101886.00;;;19.50
19644;BMP180;9970;-36.854;174.870;2023-03-19T07:43:25;101885.00;;;19.50
19644;BMP180;9970;-36.854;174.870;2023-03-19T07:49:22;101894.00;;;19.50
19644;BMP180;9970;-36.854;174.870;2023-03-19T07:55:41;101915.00;;;19.50
19644;BMP180;9970;-36.854;174.870;2023-03-19T08:04:52;101917.00;;;19.40
19644;BMP180;9970;-36.854;174.870;2023-03-19T08:07:51;101919.00;;;19.40
19644;BMP180;9970;-36.854;174.870;2023-03-19T08:10:49;101919.00;;;19.40
19644;BMP180;9970;-36.854;174.870;2023-03-19T08:13:56;101926.00;;;19.40
19644;BMP180;9970;-36.854;174.870;2023-03-19T08:17:06;101930.00;;;19.40
19644;BMP180;9970;-36.854;174.870;2023-03-19T08:22:47;101945.00;;;19.40
19644;BMP180;9970;-36.854;174.870;2023-03-19T08:29:18;101952.00;;;19.40
19644;BMP180;9970;-36.854;174.870;2023-03-19T08:32:01;101942.00;;;19.30
19644;BMP180;9970;-36.854;174.870;2023-03-19T08:41:02;101959.00;;;19.30
19644;BMP180;9970;-36.854;174.870;2023-03-19T08:50:21;101947.00;;;19.30
19644;BMP180;9970;-36.854;174.870;2023-03-19T08:53:15;101946.00;;;19.30
19644;BMP180;9970;-36.854;174.870;2023-03-19T08:56:31;101948.00;;;19.30
19644;BMP180;9970;-36.854;174.870;2023-03-19T08:59:45;101952.00;;;19.30
19644;BMP180;9970;-36.854;174.870;2023-03-19T09:05:43;101951.00;;;19.30
19644;BMP180;9970;-36.854;174.870;2023-03-19T09:12:32;101955.00;;;19.30
19644;BMP180;9970;-36.854;174.870;2023-03-19T09:17:53;101953.00;;;19.30
19644;BMP180;9970;-36.854;174.870;2023-03-19T09:21:04;101960.00;;;19.30
19644;BMP180;9970;-36.854;174.870;2023-03-19T09:23:45;101958.00;;;19.30
19644;BMP180;9970;-36.854;174.870;2023-03-19T09:26:44;101968.00;;;19.30
19644;BMP180;9970;-36.854;174.870;2023-03-19T09:32:36;101966.00;;;19.30
19644;BMP180;9970;-36.854;174.870;2023-03-19T09:35:13;101972.00;;;19.30
19644;BMP180;9970;-36.854;174.870;2023-03-19T09:40:43;101965.00;;;19.30
19644;BMP180;9970;-36.854;174.870;2023-03-19T09:43:30;101958.00;;;19.20
19644;BMP180;9970;-36.854;174.870;2023-03-19T09:46:01;101959.00;;;19.20
19644;BMP180;9970;-36.854;174.870;2023-03-19T09:49:01;101958.00;;;19.30
19644;BMP180;9970;-36.854;174.870;2023-03-19T09:51:13;101964.00;;;19.20
19644;BMP180;9970;-36.854;174.870;2023-03-19T09:56:23;101958.00;;;19.20
19644;BMP180;9970;-36.854;174.870;2023-03-19T09:58:56;101957.00;;;19.20
19644;BMP180;9970;-36.854;174.870;2023-03-19T10:01:33;101957.00;;;19.20
19644;BMP180;9970;-36.854;174.870;2023-03-19T10:04:26;101955.00;;;19.20
19644;BMP180;9970;-36.854;174.870;2023-03-19T10:06:56;101959.00;;;19.20
19644;BMP180;9970;-36.854;174.870;2023-03-19T10:15:28;101943.00;;;19.20
19644;BMP180;9970;-36.854;174.870;2023-03-19T10:18:15;101951.00;;;19.20
19644;BMP180;9970;-36.854;174.870;2023-03-19T10:21:02;101946.00;;;19.10
19644;BMP180;9970;-36.854;174.870;2023-03-19T10:23:52;101950.00;;;19.10
19644;BMP180;9970;-36.854;174.870;2023-03-19T10:26:30;101952.00;;;19.10
19644;BMP180;9970;-36.854;174.870;2023-03-19T10:29:06;101957.00;;;19.10
19644;BMP180;9970;-36.854;174.870;2023-03-19T10:34:40;101953.00;;;19.10
19644;BMP180;9970;-36.854;174.870;2023-03-19T10:37:16;101944.00;;;19.10
19644;BMP180;9970;-36.854;174.870;2023-03-19T10:39:51;101953.00;;;19.10
19644;BMP180;9970;-36.854;174.870;2023-03-19T10:45:35;101961.00;;;19.10
19644;BMP180;9970;-36.854;174.870;2023-03-19T10:48:14;101958.00;;;19.10
19644;BMP180;9970;-36.854;174.870;2023-03-19T10:50:56;101957.00;;;19.10
19644;BMP180;9970;-36.854;174.870;2023-03-19T10:53:31;101956.00;;;19.10
19644;BMP180;9970;-36.854;174.870;2023-03-19T10:56:06;101952.00;;;19.10
19644;BMP180;9970;-36.854;174.870;2023-03-19T10:58:39;101961.00;;;19.10
19644;BMP180;9970;-36.854;174.870;2023-03-19T11:01:12;101955.00;;;19.10
19644;BMP180;9970;-36.854;174.870;2023-03-19T11:03:56;101958.00;;;19.10
19644;BMP180;9970;-36.854;174.870;2023-03-19T11:06:34;101961.00;;;19.10
19644;BMP180;9970;-36.854;174.870;2023-03-19T11:09:17;101950.00;;;19.10
19644;BMP180;9970;-36.854;174.870;2023-03-19T11:11:50;101955.00;;;19.10
19644;BMP180;9970;-36.854;174.870;2023-03-19T11:14:33;101958.00;;;19.10
19644;BMP180;9970;-36.854;174.870;2023-03-19T11:19:58;101963.00;;;19.10
19644;BMP180;9970;-36.854;174.870;2023-03-19T11:22:32;101951.00;;;19.10
19644;BMP180;9970;-36.854;174.870;2023-03-19T11:28:07;101957.00;;;19.00
19644;BMP180;9970;-36.854;174.870;2023-03-19T11:33:31;101960.00;;;19.00
19644;BMP180;9970;-36.854;174.870;2023-03-19T11:38:53;101952.00;;;18.90
19644;BMP180;9970;-36.854;174.870;2023-03-19T11:41:39;101937.00;;;18.90
19644;BMP180;9970;-36.854;174.870;2023-03-19T11:44:25;101953.00;;;18.90
19644;BMP180;9970;-36.854;174.870;2023-03-19T11:50:24;101936.00;;;18.90
19644;BMP180;9970;-36.854;174.870;2023-03-19T11:53:07;101941.00;;;18.90
19644;BMP180;9970;-36.854;174.870;2023-03-19T11:55:39;101948.00;;;18.90
19644;BMP180;9970;-36.854;174.870;2023-03-19T12:00:55;101939.00;;;18.90
19644;BMP180;9970;-36.854;174.870;2023-03-19T12:06:32;101937.00;;;18.90
19644;BMP180;9970;-36.854;174.870;2023-03-19T12:09:18;101942.00;;;18.90
19644;BMP180;9970;-36.854;174.870;2023-03-19T12:15:04;101949.00;;;18.80
19644;BMP180;9970;-36.854;174.870;2023-03-19T12:17:57;101943.00;;;18.80
19644;BMP180;9970;-36.854;174.870;2023-03-19T12:20:40;101944.00;;;18.80
19644;BMP180;9970;-36.854;174.870;2023-03-19T12:23:11;101936.00;;;18.80
19644;BMP180;9970;-36.854;174.870;2023-03-19T12:26:06;101936.00;;;18.80
19644;BMP180;9970;-36.854;174.870;2023-03-19T12:28:43;101939.00;;;18.80
19644;BMP180;9970;-36.854;174.870;2023-03-19T12:34:12;101931.00;;;18.70
19644;BMP180;9970;-36.854;174.870;2023-03-19T12:36:56;101939.00;;;18.70
19644;BMP180;9970;-36.854;174.870;2023-03-19T12:39:29;101924.00;;;18.70
19644;BMP180;9970;-36.854;174.870;2023-03-19T12:42:03;101932.00;;;18.70
19644;BMP180;9970;-36.854;174.870;2023-03-19T12:44:41;101916.00;;;18.70
19644;BMP180;9970;-36.854;174.870;2023-03-19T12:47:25;101926.00;;;18.70
19644;BMP180;9970;-36.854;174.870;2023-03-19T12:49:59;101929.00;;;18.70
19644;BMP180;9970;-36.854;174.870;2023-03-19T12:52:43;101922.00;;;18.70
19644;BMP180;9970;-36.854;174.870;2023-03-19T13:03:38;101927.00;;;18.60
19644;BMP180;9970;-36.854;174.870;2023-03-19T13:06:15;101922.00;;;18.60
19644;BMP180;9970;-36.854;174.870;2023-03-19T13:08:51;101923.00;;;18.60
19644;BMP180;9970;-36.854;174.870;2023-03-19T13:11:38;101923.00;;;18.60
19644;BMP180;9970;-36.854;174.870;2023-03-19T13:17:23;101925.00;;;18.60
19644;BMP180;9970;-36.854;174.870;2023-03-19T13:19:54;101918.00;;;18.50
19644;BMP180;9970;-36.854;174.870;2023-03-19T13:22:31;101923.00;;;18.50
19644;BMP180;9970;-36.854;174.870;2023-03-19T13:25:08;101917.00;;;18.50
19644;BMP180;9970;-36.854;174.870;2023-03-19T13:27:41;101921.00;;;18.50
19644;BMP180;9970;-36.854;174.870;2023-03-19T13:30:16;101914.00;;;18.50
19644;BMP180;9970;-36.854;174.870;2023-03-19T13:33:00;101904.00;;;18.50
19644;BMP180;9970;-36.854;174.870;2023-03-19T13:38:19;101908.00;;;18.50
19644;BMP180;9970;-36.854;174.870;2023-03-19T13:40:56;101914.00;;;18.50
19644;BMP180;9970;-36.854;174.870;2023-03-19T13:51:23;101895.00;;;18.50
19644;BMP180;9970;-36.854;174.870;2023-03-19T13:54:18;101902.00;;;18.50
19644;BMP180;9970;-36.854;174.870;2023-03-19T13:59:48;101885.00;;;18.40
19644;BMP180;9970;-36.854;174.870;2023-03-19T14:05:03;101889.00;;;18.40
19644;BMP180;9970;-36.854;174.870;2023-03-19T14:07:38;101888.00;;;18.40
19644;BMP180;9970;-36.854;174.870;2023-03-19T14:10:25;101895.00;;;18.40
19644;BMP180;9970;-36.854;174.870;2023-03-19T14:13:13;101887.00;;;18.40
19644;BMP180;9970;-36.854;174.870;2023-03-19T14:15:40;101882.00;;;18.40
19644;BMP180;9970;-36.854;174.870;2023-03-19T14:18:19;101886.00;;;18.40
19644;BMP180;9970;-36.854;174.870;2023-03-19T14:21:03;101890.00;;;18.40
19644;BMP180;9970;-36.854;174.870;2023-03-19T14:23:53;101883.00;;;18.40
19644;BMP180;9970;-36.854;174.870;2023-03-19T14:26:24;101887.00;;;18.40
19644;BMP180;9970;-36.854;174.870;2023-03-19T14:29:10;101884.00;;;18.40
19644;BMP180;9970;-36.854;174.870;2023-03-19T14:31:47;101890.00;;;18.40
19644;BMP180;9970;-36.854;174.870;2023-03-19T14:34:23;101875.00;;;18.30
19644;BMP180;9970;-36.854;174.870;2023-03-19T14:37:03;101878.00;;;18.30
19644;BMP180;9970;-36.854;174.870;2023-03-19T14:39:40;101879.00;;;18.30
19644;BMP180;9970;-36.854;174.870;2023-03-19T14:50:39;101864.00;;;18.20
19644;BMP180;9970;-36.854;174.870;2023-03-19T14:56:19;101857.00;;;18.10
19644;BMP180;9970;-36.854;174.870;2023-03-19T14:58:55;101854.00;;;18.10
19644;BMP180;9970;-36.854;174.870;2023-03-19T15:01:32;101844.00;;;18.00
19644;BMP180;9970;-36.854;174.870;2023-03-19T15:04:08;101839.00;;;17.90
19644;BMP180;9970;-36.854;174.870;2023-03-19T15:06:49;101840.00;;;17.90
19644;BMP180;9970;-36.854;174.870;2023-03-19T15:09:24;101835.00;;;17.90
19644;BMP180;9970;-36.854;174.870;2023-03-19T15:12:19;101828.00;;;17.80
19644;BMP180;9970;-36.854;174.870;2023-03-19T15:18:09;101830.00;;;17.80
19644;BMP180;9970;-36.854;174.870;2023-03-19T15:20:46;101839.00;;;17.70
19644;BMP180;9970;-36.854;174.870;2023-03-19T15:23:23;101833.00;;;17.70
19644;BMP180;9970;-36.854;174.870;2023-03-19T15:26:01;101831.00;;;17.70
19644;BMP180;9970;-36.854;174.870;2023-03-19T15:28:50;101825.00;;;17.70
19644;BMP180;9970;-36.854;174.870;2023-03-19T15:31:23;101822.00;;;17.60
19644;BMP180;9970;-36.854;174.870;2023-03-19T15:33:58;101823.00;;;17.60
19644;BMP180;9970;-36.854;174.870;2023-03-19T15:36:32;101824.00;;;17.60
19644;BMP180;9970;-36.854;174.870;2023-03-19T15:39:06;101826.00;;;17.60
19644;BMP180;9970;-36.854;174.870;2023-03-19T15:41:42;101822.00;;;17.50
19644;BMP180;9970;-36.854;174.870;2023-03-19T15:44:35;101823.00;;;17.50
19644;BMP180;9970;-36.854;174.870;2023-03-19T15:46:53;101823.00;;;17.50
19644;BMP180;9970;-36.854;174.870;2023-03-19T15:49:31;101820.00;;;17.50
19644;BMP180;9970;-36.854;174.870;2023-03-19T15:52:09;101819.00;;;17.50
19644;BMP180;9970;-36.854;174.870;2023-03-19T15:54:42;101818.00;;;17.50
19644;BMP180;9970;-36.854;174.870;2023-03-19T15:57:17;101818.00;;;17.40
19644;BMP180;9970;-36.854;174.870;2023-03-19T15:59:51;101810.00;;;17.40
19644;BMP180;9970;-36.854;174.870;2023-03-19T16:02:31;101816.00;;;17.40
19644;BMP180;9970;-36.854;174.870;2023-03-19T16:05:05;101816.00;;;17.30
19644;BMP180;9970;-36.854;174.870;2023-03-19T16:07:43;101815.00;;;17.30
19644;BMP180;9970;-36.854;174.870;2023-03-19T16:10:36;101817.00;;;17.30
19644;BMP180;9970;-36.854;174.870;2023-03-19T16:13:25;101821.00;;;17.30
19644;BMP180;9970;-36.854;174.870;2023-03-19T16:16:06;101818.00;;;17.30
19644;BMP180;9970;-36.854;174.870;2023-03-19T16:18:48;101814.00;;;17.30
19644;BMP180;9970;-36.854;174.870;2023-03-19T16:24:13;101814.00;;;17.20
19644;BMP180;9970;-36.854;174.870;2023-03-19T16:26:47;101813.00;;;17.10
19644;BMP180;9970;-36.854;174.870;2023-03-19T16:29:22;101799.00;;;17.10
19644;BMP180;9970;-36.854;174.870;2023-03-19T16:32:19;101803.00;;;17.10
19644;BMP180;9970;-36.854;174.870;2023-03-19T16:35:19;101805.00;;;17.00
19644;BMP180;9970;-36.854;174.870;2023-03-19T16:37:49;101803.00;;;17.00
19644;BMP180;9970;-36.854;174.870;2023-03-19T16:42:55;101805.00;;;17.00
19644;BMP180;9970;-36.854;174.870;2023-03-19T16:45:30;101801.00;;;17.00
19644;BMP180;9970;-36.854;174.870;2023-03-19T16:48:03;101800.00;;;17.00
19644;BMP180;9970;-36.854;174.870;2023-03-19T16:50:40;101797.00;;;16.90
19644;BMP180;9970;-36.854;174.870;2023-03-19T16:53:24;101796.00;;;16.90
19644;BMP180;9970;-36.854;174.870;2023-03-19T16:56:01;101802.00;;;16.90
19644;BMP180;9970;-36.854;174.870;2023-03-19T16:58:37;101799.00;;;16.90
19644;BMP180;9970;-36.854;174.870;2023-03-19T17:01:19;101801.00;;;16.80
19644;BMP180;9970;-36.854;174.870;2023-03-19T17:03:52;101797.00;;;16.80
19644;BMP180;9970;-36.854;174.870;2023-03-19T17:06:31;101788.00;;;16.80
19644;BMP180;9970;-36.854;174.870;2023-03-19T17:09:07;101791.00;;;16.80
19644;BMP180;9970;-36.854;174.870;2023-03-19T17:11:41;101788.00;;;16.80
19644;BMP180;9970;-36.854;174.870;2023-03-19T17:14:16;101795.00;;;16.80
19644;BMP180;9970;-36.854;174.870;2023-03-19T17:16:49;101788.00;;;16.80
19644;BMP180;9970;-36.854;174.870;2023-03-19T17:19:23;101796.00;;;16.70
19644;BMP180;9970;-36.854;174.870;2023-03-19T17:21:59;101793.00;;;16.70
19644;BMP180;9970;-36.854;174.870;2023-03-19T17:24:33;101787.00;;;16.70
19644;BMP180;9970;-36.854;174.870;2023-03-19T17:27:06;101793.00;;;16.60
19644;BMP180;9970;-36.854;174.870;2023-03-19T17:29:38;101794.00;;;16.60
19644;BMP180;9970;-36.854;174.870;2023-03-19T17:32:15;101791.00;;;16.60
19644;BMP180;9970;-36.854;174.870;2023-03-19T17:34:47;101792.00;;;16.60
19644;BMP180;9970;-36.854;174.870;2023-03-19T17:37:20;101793.00;;;16.50
19644;BMP180;9970;-36.854;174.870;2023-03-19T17:39:53;101793.00;;;16.50
19644;BMP180;9970;-36.854;174.870;2023-03-19T17:42:26;101800.00;;;16.50
19644;BMP180;9970;-36.854;174.870;2023-03-19T17:45:01;101790.00;;;16.50
19644;BMP180;9970;-36.854;174.870;2023-03-19T17:47:34;101791.00;;;16.60
19644;BMP180;9970;-36.854;174.870;2023-03-19T17:50:30;101800.00;;;16.60
19644;BMP180;9970;-36.854;174.870;2023-03-19T17:52:43;101792.00;;;16.60
19644;BMP180;9970;-36.854;174.870;2023-03-19T17:55:19;101788.00;;;16.50
19644;BMP180;9970;-36.854;174.870;2023-03-19T17:57:53;101790.00;;;16.50
19644;BMP180;9970;-36.854;174.870;2023-03-19T18:00:31;101795.00;;;16.50
19644;BMP180;9970;-36.854;174.870;2023-03-19T18:03:05;101795.00;;;16.50
19644;BMP180;9970;-36.854;174.870;2023-03-19T18:05:38;101783.00;;;16.50
19644;BMP180;9970;-36.854;174.870;2023-03-19T18:08:15;101780.00;;;16.50
19644;BMP180;9970;-36.854;174.870;2023-03-19T18:10:49;101782.00;;;16.40
19644;BMP180;9970;-36.854;174.870;2023-03-19T18:13:22;101792.00;;;16.40
19644;BMP180;9970;-36.854;174.870;2023-03-19T18:15:55;101784.00;;;16.40
19644;BMP180;9970;-36.854;174.870;2023-03-19T18:18:28;101786.00;;;16.40
19644;BMP180;9970;-36.854;174.870;2023-03-19T18:21:02;101800.00;;;16.40
19644;BMP180;9970;-36.854;174.870;2023-03-19T18:23:36;101803.00;;;16.40
19644;BMP180;9970;-36.854;174.870;2023-03-19T18:26:09;101810.00;;;16.40
19644;BMP180;9970;-36.854;174.870;2023-03-19T18:28:42;101811.00;;;16.30
19644;BMP180;9970;-36.854;174.870;2023-03-19T18:31:22;101814.00;;;16.30
19644;BMP180;9970;-36.854;174.870;2023-03-19T18:33:57;101808.00;;;16.30
19644;BMP180;9970;-36.854;174.870;2023-03-19T18:36:31;101811.00;;;16.30
19644;BMP180;9970;-36.854;174.870;2023-03-19T18:39:09;101805.00;;;16.30
19644;BMP180;9970;-36.854;174.870;2023-03-19T18:41:43;101802.00;;;16.30
19644;BMP180;9970;-36.854;174.870;2023-03-19T18:44:16;101800.00;;;16.20
19644;BMP180;9970;-36.854;174.870;2023-03-19T18:46:49;101810.00;;;16.20
19644;BMP180;9970;-36.854;174.870;2023-03-19T18:49:24;101804.00;;;16.20
19644;BMP180;9970;-36.854;174.870;2023-03-19T18:51:57;101808.00;;;16.20
19644;BMP180;9970;-36.854;174.870;2023-03-19T18:54:31;101811.00;;;16.20
19644;BMP180;9970;-36.854;174.870;2023-03-19T18:57:04;101814.00;;;16.20
19644;BMP180;9970;-36.854;174.870;2023-03-19T18:59:38;101811.00;;;16.20
19644;BMP180;9970;-36.854;174.870;2023-03-19T19:04:55;101809.00;;;16.20